sensor_id;sensor_type;location;lat;lon;timestamp;pressure;altitude;pressure_sealevel;temperature
24740;BMP280;45234;48.148;17.128;2022-07-22T00:00:54;100138.38;;;27.18
24740;BMP280;45234;48.148;17.128;2022-07-22T00:03:21;100138.06;;;27.20
24740;BMP280;45234;48.148;17.128;2022-07-22T00:05:48;100126.63;;;27.19
24740;BMP280;45234;48.148;17.128;2022-07-22T00:08:15;100130.06;;;27.20
24740;BMP280;45234;48.148;17.128;2022-07-22T00:10:43;100121.63;;;27.17
24740;BMP280;45234;48.148;17.128;2022-07-22T00:13:10;100121.94;;;27.16
24740;BMP280;45234;48.148;17.128;2022-07-22T00:15:38;100120.38;;;27.15
24740;BMP280;45234;48.148;17.128;2022-07-22T00:18:05;100113.75;;;27.12
24740;BMP280;45234;48.148;17.128;2022-07-22T00:20:32;100113.75;;;27.12
24740;BMP280;45234;48.148;17.128;2022-07-22T00:22:59;100110.03;;;27.13
24740;BMP280;45234;48.148;17.128;2022-07-22T00:25:27;100106.88;;;27.11
24740;BMP280;45234;48.148;17.128;2022-07-22T00:27:56;100097.78;;;27.12
24740;BMP280;45234;48.148;17.128;2022-07-22T00:30:23;100094.06;;;27.13
24740;BMP280;45234;48.148;17.128;2022-07-22T00:32:50;100095.47;;;27.20
24740;BMP280;45234;48.148;17.128;2022-07-22T00:35:17;100095.19;;;27.21
24740;BMP280;45234;48.148;17.128;2022-07-22T00:37:45;100089.38;;;27.19
24740;BMP280;45234;48.148;17.128;2022-07-22T00:40:12;100097.25;;;27.24
24740;BMP280;45234;48.148;17.128;2022-07-22T00:42:40;100090.16;;;27.20
24740;BMP280;45234;48.148;17.128;2022-07-22T00:45:08;100099.72;;;27.21
24740;BMP280;45234;48.148;17.128;2022-07-22T00:47:36;100096.63;;;27.27
24740;BMP280;45234;48.148;17.128;2022-07-22T00:50:04;100106.00;;;27.25
24740;BMP280;45234;48.148;17.128;2022-07-22T00:52:33;100109.56;;;27.20
24740;BMP280;45234;48.148;17.128;2022-07-22T00:55:02;100114.72;;;27.16
24740;BMP280;45234;48.148;17.128;2022-07-22T00:57:30;100113.16;;;27.15
24740;BMP280;45234;48.148;17.128;2022-07-22T00:59:57;100101.22;;;27.13
24740;BMP280;45234;48.148;17.128;2022-07-22T01:02:24;100114.22;;;27.06
24740;BMP280;45234;48.148;17.128;2022-07-22T01:04:52;100134.53;;;27.02
24740;BMP280;45234;48.148;17.128;2022-07-22T01:07:19;100132.81;;;26.97
24740;BMP280;45234;48.148;17.128;2022-07-22T01:09:46;100146.22;;;26.92
24740;BMP280;45234;48.148;17.128;2022-07-22T01:12:14;100143.69;;;26.87
24740;BMP280;45234;48.148;17.128;2022-07-22T01:14:41;100166.44;;;26.71
24740;BMP280;45234;48.148;17.128;2022-07-22T01:17:08;100152.81;;;26.64
24740;BMP280;45234;48.148;17.128;2022-07-22T01:19:36;100173.22;;;26.55
24740;BMP280;45234;48.148;17.128;2022-07-22T01:22:05;100176.13;;;26.45
24740;BMP280;45234;48.148;17.128;2022-07-22T01:24:32;100169.34;;;26.39
24740;BMP280;45234;48.148;17.128;2022-07-22T01:27:00;100167.91;;;26.33
24740;BMP280;45234;48.148;17.128;2022-07-22T01:29:28;100166.38;;;26.18
24740;BMP280;45234;48.148;17.128;2022-07-22T01:31:55;100171.63;;;26.09
24740;BMP280;45234;48.148;17.128;2022-07-22T01:34:24;100170.16;;;26.03
24740;BMP280;45234;48.148;17.128;2022-07-22T01:36:52;100169.19;;;25.99
24740;BMP280;45234;48.148;17.128;2022-07-22T01:39:19;100164.19;;;25.98
24740;BMP280;45234;48.148;17.128;2022-07-22T01:41:47;100160.81;;;25.92
24740;BMP280;45234;48.148;17.128;2022-07-22T01:44:14;100163.00;;;25.90
24740;BMP280;45234;48.148;17.128;2022-07-22T01:46:41;100152.84;;;25.92
24740;BMP280;45234;48.148;17.128;2022-07-22T01:49:09;100163.78;;;25.91
24740;BMP280;45234;48.148;17.128;2022-07-22T01:51:38;100182.69;;;25.89
24740;BMP280;45234;48.148;17.128;2022-07-22T01:54:05;100171.84;;;25.85
24740;BMP280;45234;48.148;17.128;2022-07-22T01:56:33;100191.81;;;25.83
24740;BMP280;45234;48.148;17.128;2022-07-22T01:59:00;100183.06;;;25.82
24740;BMP280;45234;48.148;17.128;2022-07-22T02:01:29;100186.44;;;25.74
24740;BMP280;45234;48.148;17.128;2022-07-22T02:03:56;100211.22;;;25.70
24740;BMP280;45234;48.148;17.128;2022-07-22T02:06:24;100197.25;;;25.64
24740;BMP280;45234;48.148;17.128;2022-07-22T02:08:52;100210.19;;;25.52
24740;BMP280;45234;48.148;17.128;2022-07-22T02:11:33;100204.69;;;25.49
24740;BMP280;45234;48.148;17.128;2022-07-22T02:14:01;100207.44;;;25.44
24740;BMP280;45234;48.148;17.128;2022-07-22T02:16:29;100196.63;;;25.40
24740;BMP280;45234;48.148;17.128;2022-07-22T02:18:58;100202.41;;;25.28
24740;BMP280;45234;48.148;17.128;2022-07-22T02:21:25;100211.28;;;25.24
24740;BMP280;45234;48.148;17.128;2022-07-22T02:23:58;100210.06;;;25.16
24740;BMP280;45234;48.148;17.128;2022-07-22T02:26:25;100212.72;;;25.16
24740;BMP280;45234;48.148;17.128;2022-07-22T02:28:52;100209.44;;;25.06
24740;BMP280;45234;48.148;17.128;2022-07-22T02:31:22;100208.75;;;25.00
24740;BMP280;45234;48.148;17.128;2022-07-22T02:33:49;100212.25;;;24.95
24740;BMP280;45234;48.148;17.128;2022-07-22T02:36:16;100209.91;;;24.94
24740;BMP280;45234;48.148;17.128;2022-07-22T02:38:44;100217.56;;;24.95
24740;BMP280;45234;48.148;17.128;2022-07-22T02:41:11;100217.56;;;24.95
24740;BMP280;45234;48.148;17.128;2022-07-22T02:43:46;100230.03;;;24.95
24740;BMP280;45234;48.148;17.128;2022-07-22T02:46:13;100215.19;;;24.94
24740;BMP280;45234;48.148;17.128;2022-07-22T02:48:41;100224.03;;;24.89
24740;BMP280;45234;48.148;17.128;2022-07-22T02:51:11;100218.09;;;24.79
24740;BMP280;45234;48.148;17.128;2022-07-22T02:53:38;100217.78;;;24.80
24740;BMP280;45234;48.148;17.128;2022-07-22T02:56:06;100222.84;;;24.82
24740;BMP280;45234;48.148;17.128;2022-07-22T02:58:33;100222.03;;;24.81
24740;BMP280;45234;48.148;17.128;2022-07-22T03:01:00;100226.03;;;24.79
24740;BMP280;45234;48.148;17.128;2022-07-22T03:03:31;100217.09;;;24.75
24740;BMP280;45234;48.148;17.128;2022-07-22T03:06:01;100217.13;;;24.70
24740;BMP280;45234;48.148;17.128;2022-07-22T03:08:36;100216.25;;;24.61
24740;BMP280;45234;48.148;17.128;2022-07-22T03:11:04;100224.75;;;24.58
24740;BMP280;45234;48.148;17.128;2022-07-22T03:13:35;100221.38;;;24.52
24740;BMP280;45234;48.148;17.128;2022-07-22T03:16:02;100223.56;;;24.50
24740;BMP280;45234;48.148;17.128;2022-07-22T03:18:29;100228.34;;;24.48
24740;BMP280;45234;48.148;17.128;2022-07-22T03:20:57;100225.41;;;24.49
24740;BMP280;45234;48.148;17.128;2022-07-22T03:23:24;100222.25;;;24.47
24740;BMP280;45234;48.148;17.128;2022-07-22T03:25:51;100227.53;;;24.47
24740;BMP280;45234;48.148;17.128;2022-07-22T03:28:18;100225.41;;;24.49
24740;BMP280;45234;48.148;17.128;2022-07-22T03:30:46;100230.72;;;24.49
24740;BMP280;45234;48.148;17.128;2022-07-22T03:33:15;100237.81;;;24.54
24740;BMP280;45234;48.148;17.128;2022-07-22T03:35:42;100236.66;;;24.60
24740;BMP280;45234;48.148;17.128;2022-07-22T03:38:09;100233.94;;;24.65
24740;BMP280;45234;48.148;17.128;2022-07-22T03:40:37;100230.97;;;24.67
24740;BMP280;45234;48.148;17.128;2022-07-22T03:43:05;100230.41;;;24.70
24740;BMP280;45234;48.148;17.128;2022-07-22T03:45:32;100235.16;;;24.73
24740;BMP280;45234;48.148;17.128;2022-07-22T03:48:00;100242.44;;;24.81
24740;BMP280;45234;48.148;17.128;2022-07-22T03:50:33;100237.56;;;24.88
24740;BMP280;45234;48.148;17.128;2022-07-22T03:53:00;100245.66;;;24.96
24740;BMP280;45234;48.148;17.128;2022-07-22T03:55:28;100251.09;;;25.05
24740;BMP280;45234;48.148;17.128;2022-07-22T03:57:56;100248.44;;;25.05
24740;BMP280;45234;48.148;17.128;2022-07-22T04:00:28;100248.44;;;25.05
24740;BMP280;45234;48.148;17.128;2022-07-22T04:02:57;100257.88;;;25.11
24740;BMP280;45234;48.148;17.128;2022-07-22T04:05:43;100260.91;;;25.05
24740;BMP280;45234;48.148;17.128;2022-07-22T04:08:11;100252.97;;;25.05
24740;BMP280;45234;48.148;17.128;2022-07-22T04:10:38;100255.50;;;24.96
24740;BMP280;45234;48.148;17.128;2022-07-22T04:13:07;100253.81;;;25.00
24740;BMP280;45234;48.148;17.128;2022-07-22T04:15:44;100262.38;;;24.97
24740;BMP280;45234;48.148;17.128;2022-07-22T04:18:12;100256.16;;;25.02
24740;BMP280;45234;48.148;17.128;2022-07-22T04:20:40;100258.47;;;25.08
24740;BMP280;45234;48.148;17.128;2022-07-22T04:23:26;100264.25;;;24.96
24740;BMP280;45234;48.148;17.128;2022-07-22T04:26:03;100262.16;;;24.93
24740;BMP280;45234;48.148;17.128;2022-07-22T04:28:34;100264.50;;;24.95
24740;BMP280;45234;48.148;17.128;2022-07-22T04:31:03;100263.94;;;24.98
24740;BMP280;45234;48.148;17.128;2022-07-22T04:33:31;100255.34;;;25.06
24740;BMP280;45234;48.148;17.128;2022-07-22T04:35:59;100261.13;;;25.08
24740;BMP280;45234;48.148;17.128;2022-07-22T04:38:26;100262.06;;;25.17
24740;BMP280;45234;48.148;17.128;2022-07-22T04:41:12;100268.13;;;25.18
24740;BMP280;45234;48.148;17.128;2022-07-22T04:43:40;100266.69;;;25.25
24740;BMP280;45234;48.148;17.128;2022-07-22T04:46:07;100257.19;;;25.24
24740;BMP280;45234;48.148;17.128;2022-07-22T04:48:39;100271.50;;;25.23
24740;BMP280;45234;48.148;17.128;2022-07-22T04:51:06;100266.00;;;25.33
24740;BMP280;45234;48.148;17.128;2022-07-22T04:53:34;100272.81;;;25.39
24740;BMP280;45234;48.148;17.128;2022-07-22T04:56:15;100273.31;;;25.42
24740;BMP280;45234;48.148;17.128;2022-07-22T04:58:43;100266.84;;;25.48
24740;BMP280;45234;48.148;17.128;2022-07-22T05:01:10;100264.47;;;25.46
24740;BMP280;45234;48.148;17.128;2022-07-22T05:03:41;100270.78;;;25.50
24740;BMP280;45234;48.148;17.128;2022-07-22T05:06:09;100265.09;;;25.57
24740;BMP280;45234;48.148;17.128;2022-07-22T05:08:40;100262.72;;;25.69
24740;BMP280;45234;48.148;17.128;2022-07-22T05:11:07;100264.91;;;25.67
24740;BMP280;45234;48.148;17.128;2022-07-22T05:13:35;100270.03;;;25.77
24740;BMP280;45234;48.148;17.128;2022-07-22T05:16:04;100263.84;;;25.81
24740;BMP280;45234;48.148;17.128;2022-07-22T05:18:33;100266.31;;;25.92
24740;BMP280;45234;48.148;17.128;2022-07-22T05:21:02;100267.84;;;26.06
24740;BMP280;45234;48.148;17.128;2022-07-22T05:23:29;100274.75;;;26.21
24740;BMP280;45234;48.148;17.128;2022-07-22T05:25:57;100264.09;;;26.35
24740;BMP280;45234;48.148;17.128;2022-07-22T05:28:24;100264.63;;;26.45
24740;BMP280;45234;48.148;17.128;2022-07-22T05:30:52;100259.50;;;26.62
24740;BMP280;45234;48.148;17.128;2022-07-22T05:33:20;100264.75;;;26.98
24740;BMP280;45234;48.148;17.128;2022-07-22T05:36:03;100266.03;;;27.32
24740;BMP280;45234;48.148;17.128;2022-07-22T05:38:37;100264.88;;;27.55
24740;BMP280;45234;48.148;17.128;2022-07-22T05:41:05;100266.88;;;27.80
24740;BMP280;45234;48.148;17.128;2022-07-22T05:43:32;100271.47;;;28.05
24740;BMP280;45234;48.148;17.128;2022-07-22T05:46:01;100273.69;;;28.38
24740;BMP280;45234;48.148;17.128;2022-07-22T05:48:29;100269.38;;;29.06
24740;BMP280;45234;48.148;17.128;2022-07-22T05:50:56;100274.31;;;30.33
24740;BMP280;45234;48.148;17.128;2022-07-22T05:53:23;100264.84;;;32.17
24740;BMP280;45234;48.148;17.128;2022-07-22T05:55:51;100277.09;;;33.75
24740;BMP280;45234;48.148;17.128;2022-07-22T05:58:18;100291.03;;;35.10
24740;BMP280;45234;48.148;17.128;2022-07-22T06:00:45;100277.31;;;36.18
24740;BMP280;45234;48.148;17.128;2022-07-22T06:03:12;100284.31;;;37.39
24740;BMP280;45234;48.148;17.128;2022-07-22T06:05:45;100287.59;;;38.25
24740;BMP280;45234;48.148;17.128;2022-07-22T06:08:13;100284.75;;;39.03
24740;BMP280;45234;48.148;17.128;2022-07-22T06:10:47;100293.72;;;39.73
24740;BMP280;45234;48.148;17.128;2022-07-22T06:13:15;100292.22;;;39.58
24740;BMP280;45234;48.148;17.128;2022-07-22T06:15:42;100287.78;;;39.19
24740;BMP280;45234;48.148;17.128;2022-07-22T06:18:10;100295.00;;;39.51
24740;BMP280;45234;48.148;17.128;2022-07-22T06:20:38;100294.34;;;39.94
24740;BMP280;45234;48.148;17.128;2022-07-22T06:23:05;100301.84;;;40.61
24740;BMP280;45234;48.148;17.128;2022-07-22T06:25:34;100301.50;;;40.59
24740;BMP280;45234;48.148;17.128;2022-07-22T06:28:21;100305.44;;;40.10
24740;BMP280;45234;48.148;17.128;2022-07-22T06:30:48;100307.44;;;39.99
24740;BMP280;45234;48.148;17.128;2022-07-22T06:33:17;100313.66;;;40.00
24740;BMP280;45234;48.148;17.128;2022-07-22T06:35:45;100308.56;;;40.09
24740;BMP280;45234;48.148;17.128;2022-07-22T06:38:12;100301.41;;;40.33
24740;BMP280;45234;48.148;17.128;2022-07-22T06:41:14;100298.78;;;40.22
24740;BMP280;45234;48.148;17.128;2022-07-22T06:43:55;100307.91;;;40.39
24740;BMP280;45234;48.148;17.128;2022-07-22T06:46:48;100306.53;;;40.17
24740;BMP280;45234;48.148;17.128;2022-07-22T06:49:18;100305.00;;;40.56
24740;BMP280;45234;48.148;17.128;2022-07-22T06:51:45;100300.22;;;40.30
24740;BMP280;45234;48.148;17.128;2022-07-22T06:54:12;100300.78;;;40.55
24740;BMP280;45234;48.148;17.128;2022-07-22T06:56:39;100302.97;;;40.67
24740;BMP280;45234;48.148;17.128;2022-07-22T06:59:11;100301.94;;;40.88
24740;BMP280;45234;48.148;17.128;2022-07-22T07:01:38;100297.03;;;41.10
24740;BMP280;45234;48.148;17.128;2022-07-22T07:04:06;100303.72;;;41.02
24740;BMP280;45234;48.148;17.128;2022-07-22T07:06:33;100297.19;;;40.62
24740;BMP280;45234;48.148;17.128;2022-07-22T07:09:12;100293.13;;;40.43
24740;BMP280;45234;48.148;17.128;2022-07-22T07:11:43;100293.03;;;40.50
24740;BMP280;45234;48.148;17.128;2022-07-22T07:14:26;100297.56;;;40.64
24740;BMP280;45234;48.148;17.128;2022-07-22T07:16:53;100299.41;;;40.33
24740;BMP280;45234;48.148;17.128;2022-07-22T07:19:21;100292.63;;;40.11
24740;BMP280;45234;48.148;17.128;2022-07-22T07:21:48;100285.22;;;40.52
24740;BMP280;45234;48.148;17.128;2022-07-22T07:24:16;100282.41;;;40.66
24740;BMP280;45234;48.148;17.128;2022-07-22T07:26:44;100278.75;;;40.43
24740;BMP280;45234;48.148;17.128;2022-07-22T07:29:12;100284.25;;;39.91
24740;BMP280;45234;48.148;17.128;2022-07-22T07:31:41;100287.69;;;39.40
24740;BMP280;45234;48.148;17.128;2022-07-22T07:34:13;100294.22;;;39.46
24740;BMP280;45234;48.148;17.128;2022-07-22T07:36:40;100288.31;;;39.66
24740;BMP280;45234;48.148;17.128;2022-07-22T07:39:10;100286.00;;;39.61
24740;BMP280;45234;48.148;17.128;2022-07-22T07:41:38;100286.09;;;39.46
24740;BMP280;45234;48.148;17.128;2022-07-22T07:44:06;100283.09;;;39.23
24740;BMP280;45234;48.148;17.128;2022-07-22T07:46:36;100277.47;;;38.51
24740;BMP280;45234;48.148;17.128;2022-07-22T07:49:04;100276.75;;;38.25
24740;BMP280;45234;48.148;17.128;2022-07-22T07:51:31;100272.47;;;37.93
24740;BMP280;45234;48.148;17.128;2022-07-22T07:53:59;100280.59;;;38.42
24740;BMP280;45234;48.148;17.128;2022-07-22T07:56:26;100276.97;;;39.05
24740;BMP280;45234;48.148;17.128;2022-07-22T07:58:54;100269.47;;;39.37
24740;BMP280;45234;48.148;17.128;2022-07-22T08:01:42;100268.91;;;39.67
24740;BMP280;45234;48.148;17.128;2022-07-22T08:04:28;100265.56;;;40.00
24740;BMP280;45234;48.148;17.128;2022-07-22T08:07:12;100270.22;;;39.45
24740;BMP280;45234;48.148;17.128;2022-07-22T08:09:42;100263.66;;;39.42
24740;BMP280;45234;48.148;17.128;2022-07-22T08:12:39;100271.56;;;39.05
24740;BMP280;45234;48.148;17.128;2022-07-22T08:15:25;100257.78;;;38.29
24740;BMP280;45234;48.148;17.128;2022-07-22T08:17:54;100260.88;;;37.85
24740;BMP280;45234;48.148;17.128;2022-07-22T08:20:23;100267.81;;;37.93
24740;BMP280;45234;48.148;17.128;2022-07-22T08:22:52;100266.28;;;37.85
24740;BMP280;45234;48.148;17.128;2022-07-22T08:25:21;100270.16;;;38.19
24740;BMP280;45234;48.148;17.128;2022-07-22T08:27:50;100272.84;;;38.19
24740;BMP280;45234;48.148;17.128;2022-07-22T08:30:18;100266.66;;;38.08
24740;BMP280;45234;48.148;17.128;2022-07-22T08:32:47;100266.31;;;38.27
24740;BMP280;45234;48.148;17.128;2022-07-22T08:35:16;100265.13;;;38.39
24740;BMP280;45234;48.148;17.128;2022-07-22T08:37:43;100262.81;;;38.48
24740;BMP280;45234;48.148;17.128;2022-07-22T08:40:15;100267.03;;;38.60
24740;BMP280;45234;48.148;17.128;2022-07-22T08:42:45;100262.03;;;38.55
24740;BMP280;45234;48.148;17.128;2022-07-22T08:45:17;100258.53;;;38.65
24740;BMP280;45234;48.148;17.128;2022-07-22T08:47:48;100263.19;;;38.47
24740;BMP280;45234;48.148;17.128;2022-07-22T08:50:24;100260.88;;;38.31
24740;BMP280;45234;48.148;17.128;2022-07-22T08:53:00;100266.31;;;38.35
24740;BMP280;45234;48.148;17.128;2022-07-22T08:55:30;100260.88;;;38.20
24740;BMP280;45234;48.148;17.128;2022-07-22T08:57:59;100264.75;;;38.09
24740;BMP280;45234;48.148;17.128;2022-07-22T09:00:26;100254.31;;;38.25
24740;BMP280;45234;48.148;17.128;2022-07-22T09:02:53;100258.56;;;38.15
24740;BMP280;45234;48.148;17.128;2022-07-22T09:05:20;100261.63;;;38.10
24740;BMP280;45234;48.148;17.128;2022-07-22T09:08:08;100260.09;;;38.09
24740;BMP280;45234;48.148;17.128;2022-07-22T09:10:55;100258.97;;;38.03
24740;BMP280;45234;48.148;17.128;2022-07-22T09:13:44;100259.34;;;38.05
24740;BMP280;45234;48.148;17.128;2022-07-22T09:16:45;100256.16;;;37.68
24740;BMP280;45234;48.148;17.128;2022-07-22T09:19:33;100250.78;;;37.75
24740;BMP280;45234;48.148;17.128;2022-07-22T09:22:41;100244.94;;;37.52
24740;BMP280;45234;48.148;17.128;2022-07-22T09:25:34;100246.91;;;37.72
24740;BMP280;45234;48.148;17.128;2022-07-22T09:28:22;100246.03;;;37.37
24740;BMP280;45234;48.148;17.128;2022-07-22T09:31:28;100238.88;;;36.90
24740;BMP280;45234;48.148;17.128;2022-07-22T09:34:28;100242.00;;;36.95
24740;BMP280;45234;48.148;17.128;2022-07-22T09:36:59;100239.75;;;37.08
24740;BMP280;45234;48.148;17.128;2022-07-22T09:39:31;100241.28;;;37.09
24740;BMP280;45234;48.148;17.128;2022-07-22T09:42:04;100244.00;;;37.12
24740;BMP280;45234;48.148;17.128;2022-07-22T09:44:33;100240.63;;;37.30
24740;BMP280;45234;48.148;17.128;2022-07-22T09:47:27;100235.16;;;37.23
24740;BMP280;45234;48.148;17.128;2022-07-22T09:50:25;100236.00;;;37.41
24740;BMP280;45234;48.148;17.128;2022-07-22T09:53:20;100232.13;;;37.35
24740;BMP280;45234;48.148;17.128;2022-07-22T09:56:23;100237.44;;;37.13
24740;BMP280;45234;48.148;17.128;2022-07-22T09:58:52;100227.78;;;37.16
24740;BMP280;45234;48.148;17.128;2022-07-22T10:01:26;100227.03;;;37.12
24740;BMP280;45234;48.148;17.128;2022-07-22T10:03:55;100222.75;;;37.14
24740;BMP280;45234;48.148;17.128;2022-07-22T10:06:25;100220.78;;;37.04
24740;BMP280;45234;48.148;17.128;2022-07-22T10:08:54;100223.44;;;36.90
24740;BMP280;45234;48.148;17.128;2022-07-22T10:11:32;100212.56;;;36.80
24740;BMP280;45234;48.148;17.128;2022-07-22T10:14:00;100204.94;;;36.38
24740;BMP280;45234;48.148;17.128;2022-07-22T10:16:29;100206.63;;;36.05
24740;BMP280;45234;48.148;17.128;2022-07-22T10:18:57;100204.47;;;35.81
24740;BMP280;45234;48.148;17.128;2022-07-22T10:21:33;100194.50;;;35.48
24740;BMP280;45234;48.148;17.128;2022-07-22T10:24:15;100191.19;;;35.32
24740;BMP280;45234;48.148;17.128;2022-07-22T10:26:56;100189.63;;;35.28
24740;BMP280;45234;48.148;17.128;2022-07-22T10:29:31;100191.03;;;35.18
24740;BMP280;45234;48.148;17.128;2022-07-22T10:37:39;100174.31;;;35.06
24740;BMP280;45234;48.148;17.128;2022-07-22T10:40:15;100174.22;;;34.98
24740;BMP280;45234;48.148;17.128;2022-07-22T10:45:30;100166.97;;;35.03
24740;BMP280;45234;48.148;17.128;2022-07-22T10:47:59;100172.75;;;35.05
24740;BMP280;45234;48.148;17.128;2022-07-22T10:53:08;100161.53;;;34.99
24740;BMP280;45234;48.148;17.128;2022-07-22T10:55:37;100155.03;;;35.04
24740;BMP280;45234;48.148;17.128;2022-07-22T11:01:07;100159.41;;;35.15
24740;BMP280;45234;48.148;17.128;2022-07-22T11:03:38;100157.81;;;35.11
24740;BMP280;45234;48.148;17.128;2022-07-22T11:06:24;100146.16;;;35.00
24740;BMP280;45234;48.148;17.128;2022-07-22T11:08:57;100145.41;;;35.03
24740;BMP280;45234;48.148;17.128;2022-07-22T11:11:33;100148.06;;;34.99
24740;BMP280;45234;48.148;17.128;2022-07-22T11:14:01;100147.09;;;35.14
24740;BMP280;45234;48.148;17.128;2022-07-22T11:16:29;100143.22;;;35.12
24740;BMP280;45234;48.148;17.128;2022-07-22T11:18:59;100137.78;;;35.08
24740;BMP280;45234;48.148;17.128;2022-07-22T11:21:29;100149.28;;;35.05
24740;BMP280;45234;48.148;17.128;2022-07-22T11:24:00;100143.06;;;35.01
24740;BMP280;45234;48.148;17.128;2022-07-22T11:26:51;100136.25;;;34.81
24740;BMP280;45234;48.148;17.128;2022-07-22T11:29:36;100140.59;;;34.85
24740;BMP280;45234;48.148;17.128;2022-07-22T11:32:09;100132.81;;;34.84
24740;BMP280;45234;48.148;17.128;2022-07-22T11:34:55;100132.59;;;34.66
24740;BMP280;45234;48.148;17.128;2022-07-22T11:37:24;100129.97;;;34.73
24740;BMP280;45234;48.148;17.128;2022-07-22T11:39:58;100126.97;;;34.75
24740;BMP280;45234;48.148;17.128;2022-07-22T11:42:25;100129.66;;;34.75
24740;BMP280;45234;48.148;17.128;2022-07-22T11:44:53;100128.88;;;34.74
24740;BMP280;45234;48.148;17.128;2022-07-22T11:47:20;100124.19;;;34.71
24740;BMP280;45234;48.148;17.128;2022-07-22T11:49:48;100132.97;;;34.65
24740;BMP280;45234;48.148;17.128;2022-07-22T11:52:16;100125.56;;;34.58
24740;BMP280;45234;48.148;17.128;2022-07-22T11:54:44;100121.63;;;34.52
24740;BMP280;45234;48.148;17.128;2022-07-22T11:57:14;100118.13;;;34.52
24740;BMP280;45234;48.148;17.128;2022-07-22T11:59:42;100113.56;;;34.26
24740;BMP280;45234;48.148;17.128;2022-07-22T12:02:09;100116.53;;;34.21
24740;BMP280;45234;48.148;17.128;2022-07-22T12:04:41;100105.78;;;34.21
24740;BMP280;45234;48.148;17.128;2022-07-22T12:07:11;100107.34;;;34.22
24740;BMP280;45234;48.148;17.128;2022-07-22T12:09:39;100100.44;;;34.24
24740;BMP280;45234;48.148;17.128;2022-07-22T12:12:08;100098.94;;;34.27
24740;BMP280;45234;48.148;17.128;2022-07-22T12:14:36;100095.19;;;34.31
24740;BMP280;45234;48.148;17.128;2022-07-22T12:17:08;100095.22;;;34.35
24740;BMP280;45234;48.148;17.128;2022-07-22T12:19:40;100090.63;;;34.35
24740;BMP280;45234;48.148;17.128;2022-07-22T12:22:12;100085.88;;;34.29
24740;BMP280;45234;48.148;17.128;2022-07-22T12:24:58;100083.00;;;34.15
24740;BMP280;45234;48.148;17.128;2022-07-22T12:27:27;100090.47;;;34.25
24740;BMP280;45234;48.148;17.128;2022-07-22T12:29:54;100082.38;;;34.25
24740;BMP280;45234;48.148;17.128;2022-07-22T12:32:25;100071.75;;;34.09
24740;BMP280;45234;48.148;17.128;2022-07-22T12:34:57;100077.91;;;34.10
24740;BMP280;45234;48.148;17.128;2022-07-22T12:37:28;100072.97;;;34.12
24740;BMP280;45234;48.148;17.128;2022-07-22T12:42:26;100064.88;;;34.12
24740;BMP280;45234;48.148;17.128;2022-07-22T12:45:02;100070.78;;;34.21
24740;BMP280;45234;48.148;17.128;2022-07-22T12:47:52;100063.50;;;34.21
24740;BMP280;45234;48.148;17.128;2022-07-22T12:53:04;100060.91;;;34.28
24740;BMP280;45234;48.148;17.128;2022-07-22T12:55:47;100063.22;;;34.30
24740;BMP280;45234;48.148;17.128;2022-07-22T12:58:16;100066.19;;;33.99
24740;BMP280;45234;48.148;17.128;2022-07-22T13:00:47;100048.63;;;34.31
24740;BMP280;45234;48.148;17.128;2022-07-22T13:03:15;100059.13;;;34.36
24740;BMP280;45234;48.148;17.128;2022-07-22T13:05:51;100052.91;;;34.32
24740;BMP280;45234;48.148;17.128;2022-07-22T13:08:18;100043.69;;;34.33
24740;BMP280;45234;48.148;17.128;2022-07-22T13:10:51;100064.06;;;34.34
24740;BMP280;45234;48.148;17.128;2022-07-22T13:13:19;100055.31;;;34.40
24740;BMP280;45234;48.148;17.128;2022-07-22T13:15:48;100050.03;;;34.48
24740;BMP280;45234;48.148;17.128;2022-07-22T13:18:17;100055.44;;;34.51
24740;BMP280;45234;48.148;17.128;2022-07-22T13:20:45;100047.38;;;34.51
24740;BMP280;45234;48.148;17.128;2022-07-22T13:23:14;100049.34;;;34.54
24740;BMP280;45234;48.148;17.128;2022-07-22T13:25:41;100053.13;;;34.50
24740;BMP280;45234;48.148;17.128;2022-07-22T13:28:09;100045.00;;;34.46
24740;BMP280;45234;48.148;17.128;2022-07-22T13:30:36;100049.31;;;34.51
24740;BMP280;45234;48.148;17.128;2022-07-22T13:33:03;100042.44;;;34.53
24740;BMP280;45234;48.148;17.128;2022-07-22T13:35:30;100039.75;;;34.53
24740;BMP280;45234;48.148;17.128;2022-07-22T13:37:58;100037.75;;;34.50
24740;BMP280;45234;48.148;17.128;2022-07-22T13:40:26;100037.06;;;34.53
24740;BMP280;45234;48.148;17.128;2022-07-22T13:42:53;100033.19;;;34.54
24740;BMP280;45234;48.148;17.128;2022-07-22T13:45:20;100031.66;;;34.53
24740;BMP280;45234;48.148;17.128;2022-07-22T13:47:47;100030.19;;;34.59
24740;BMP280;45234;48.148;17.128;2022-07-22T13:50:15;100031.03;;;34.63
24740;BMP280;45234;48.148;17.128;2022-07-22T13:52:42;100021.78;;;34.64
24740;BMP280;45234;48.148;17.128;2022-07-22T13:55:13;100016.06;;;34.66
24740;BMP280;45234;48.148;17.128;2022-07-22T13:57:41;100016.41;;;34.64
24740;BMP280;45234;48.148;17.128;2022-07-22T14:00:09;100015.69;;;34.67
24740;BMP280;45234;48.148;17.128;2022-07-22T14:02:42;100011.03;;;34.64
24740;BMP280;45234;48.148;17.128;2022-07-22T14:05:10;100014.50;;;34.65
24740;BMP280;45234;48.148;17.128;2022-07-22T14:07:37;100009.50;;;34.63
24740;BMP280;45234;48.148;17.128;2022-07-22T14:10:04;100008.72;;;34.66
24740;BMP280;45234;48.148;17.128;2022-07-22T14:12:32;100008.00;;;34.69
24740;BMP280;45234;48.148;17.128;2022-07-22T14:14:59;100007.22;;;34.69
24740;BMP280;45234;48.148;17.128;2022-07-22T14:17:30;100010.34;;;34.71
24740;BMP280;45234;48.148;17.128;2022-07-22T14:19:57;100004.16;;;34.70
24740;BMP280;45234;48.148;17.128;2022-07-22T14:22:29;99998.75;;;34.67
24740;BMP280;45234;48.148;17.128;2022-07-22T14:24:57;99995.72;;;34.72